sensor_id;sensor_type;location;lat;lon;timestamp;pressure;altitude;pressure_sealevel;temperature;humidity
35331;BME280;21441;52.190;20.910;2023-03-13T00:00:07;99638.28;;;1.09;100.00
35331;BME280;21441;52.190;20.910;2023-03-13T00:02:55;99639.97;;;1.10;100.00
35331;BME280;21441;52.190;20.910;2023-03-13T00:05:24;99634.56;;;1.12;100.00
35331;BME280;21441;52.190;20.910;2023-03-13T00:07:51;99634.56;;;1.12;100.00
35331;BME280;21441;52.190;20.910;2023-03-13T00:10:18;99632.31;;;1.07;100.00
35331;BME280;21441;52.190;20.910;2023-03-13T00:12:45;99624.94;;;1.12;100.00
35331;BME280;21441;52.190;20.910;2023-03-13T00:15:12;99617.38;;;1.19;100.00
35331;BME280;21441;52.190;20.910;2023-03-13T00:17:40;99619.47;;;1.25;100.00
35331;BME280;21441;52.190;20.910;2023-03-13T00:20:08;99610.91;;;1.23;100.00
35331;BME280;21441;52.190;20.910;2023-03-13T00:22:37;99617.16;;;1.32;100.00
35331;BME280;21441;52.190;20.910;2023-03-13T00:25:05;99613.91;;;1.39;100.00
35331;BME280;21441;52.190;20.910;2023-03-13T00:27:33;99618.59;;;1.36;100.00
35331;BME280;21441;52.190;20.910;2023-03-13T00:30:00;99613.84;;;1.51;100.00
35331;BME280;21441;52.190;20.910;2023-03-13T00:32:27;99615.91;;;1.47;100.00
35331;BME280;21441;52.190;20.910;2023-03-13T00:34:54;99616.56;;;1.60;99.11
35331;BME280;21441;52.190;20.910;2023-03-13T00:37:22;99617.81;;;1.66;98.08
35331;BME280;21441;52.190;20.910;2023-03-13T00:39:50;99610.06;;;1.64;97.98
35331;BME280;21441;52.190;20.910;2023-03-13T00:42:17;99609.81;;;1.68;97.80
35331;BME280;21441;52.190;20.910;2023-03-13T00:44:44;99605.25;;;1.70;97.79
35331;BME280;21441;52.190;20.910;2023-03-13T00:47:12;99609.31;;;1.74;97.60
35331;BME280;21441;52.190;20.910;2023-03-13T00:49:39;99610.38;;;1.71;98.15
35331;BME280;21441;52.190;20.910;2023-03-13T00:52:07;99600.16;;;1.78;97.65
35331;BME280;21441;52.190;20.910;2023-03-13T00:54:34;99604.09;;;1.83;96.96
35331;BME280;21441;52.190;20.910;2023-03-13T00:57:03;99600.94;;;1.90;95.85
35331;BME280;21441;52.190;20.910;2023-03-13T00:59:30;99595.91;;;1.86;95.55
35331;BME280;21441;52.190;20.910;2023-03-13T01:01:57;99601.06;;;1.88;95.78
35331;BME280;21441;52.190;20.910;2023-03-13T01:04:24;99586.81;;;1.91;95.80
35331;BME280;21441;52.190;20.910;2023-03-13T01:06:52;99582.78;;;1.86;95.81
35331;BME280;21441;52.190;20.910;2023-03-13T01:09:19;99580.72;;;1.90;96.57
35331;BME280;21441;52.190;20.910;2023-03-13T01:11:46;99574.06;;;1.86;96.33
35331;BME280;21441;52.190;20.910;2023-03-13T01:14:18;99572.94;;;1.89;96.69
35331;BME280;21441;52.190;20.910;2023-03-13T01:16:46;99571.19;;;1.89;96.97
35331;BME280;21441;52.190;20.910;2023-03-13T01:19:14;99577.50;;;1.86;97.20
35331;BME280;21441;52.190;20.910;2023-03-13T01:21:43;99562.81;;;1.84;97.27
35331;BME280;21441;52.190;20.910;2023-03-13T01:24:10;99565.84;;;1.79;97.59
35331;BME280;21441;52.190;20.910;2023-03-13T01:26:38;99566.44;;;1.83;98.30
35331;BME280;21441;52.190;20.910;2023-03-13T01:29:06;99556.97;;;1.71;99.51
35331;BME280;21441;52.190;20.910;2023-03-13T01:31:35;99561.69;;;1.77;99.36
35331;BME280;21441;52.190;20.910;2023-03-13T01:34:04;99563.09;;;1.81;100.00
35331;BME280;21441;52.190;20.910;2023-03-13T01:36:32;99562.81;;;1.84;99.90
35331;BME280;21441;52.190;20.910;2023-03-13T01:39:00;99555.63;;;1.86;99.84
35331;BME280;21441;52.190;20.910;2023-03-13T01:41:29;99548.72;;;1.85;99.33
35331;BME280;21441;52.190;20.910;2023-03-13T01:43:57;99549.84;;;1.82;99.42
35331;BME280;21441;52.190;20.910;2023-03-13T01:46:26;99548.84;;;1.83;99.04
35331;BME280;21441;52.190;20.910;2023-03-13T01:48:58;99543.41;;;1.75;99.53
35331;BME280;21441;52.190;20.910;2023-03-13T01:51:28;99535.53;;;1.75;99.50
35331;BME280;21441;52.190;20.910;2023-03-13T01:54:01;99537.19;;;1.76;99.50
35331;BME280;21441;52.190;20.910;2023-03-13T01:56:35;99541.75;;;1.74;99.88
35331;BME280;21441;52.190;20.910;2023-03-13T01:59:05;99536.63;;;1.73;99.67
35331;BME280;21441;52.190;20.910;2023-03-13T02:01:34;99530.66;;;1.71;100.00
35331;BME280;21441;52.190;20.910;2023-03-13T02:04:04;99537.41;;;1.63;100.00
35331;BME280;21441;52.190;20.910;2023-03-13T02:06:33;99533.38;;;1.59;100.00
35331;BME280;21441;52.190;20.910;2023-03-13T02:09:02;99526.06;;;1.63;100.00
35331;BME280;21441;52.190;20.910;2023-03-13T02:11:39;99525.22;;;1.62;100.00
35331;BME280;21441;52.190;20.910;2023-03-13T02:14:08;99521.50;;;1.65;100.00
35331;BME280;21441;52.190;20.910;2023-03-13T02:16:36;99512.06;;;1.62;100.00
35331;BME280;21441;52.190;20.910;2023-03-13T02:19:10;99520.81;;;1.63;100.00
35331;BME280;21441;52.190;20.910;2023-03-13T02:21:49;99518.56;;;1.58;100.00
35331;BME280;21441;52.190;20.910;2023-03-13T02:24:26;99511.75;;;1.56;100.00
35331;BME280;21441;52.190;20.910;2023-03-13T02:26:58;99512.63;;;1.56;100.00
35331;BME280;21441;52.190;20.910;2023-03-13T02:29:26;99517.88;;;1.56;100.00
35331;BME280;21441;52.190;20.910;2023-03-13T02:31:54;99509.22;;;1.44;100.00
35331;BME280;21441;52.190;20.910;2023-03-13T02:34:23;99507.44;;;1.45;100.00
35331;BME280;21441;52.190;20.910;2023-03-13T02:36:54;99519.22;;;1.51;100.00
35331;BME280;21441;52.190;20.910;2023-03-13T02:39:22;99517.16;;;1.54;100.00
35331;BME280;21441;52.190;20.910;2023-03-13T02:41:51;99516.19;;;1.55;100.00
35331;BME280;21441;52.190;20.910;2023-03-13T02:44:20;99512.63;;;1.56;100.00
35331;BME280;21441;52.190;20.910;2023-03-13T02:46:49;99507.06;;;1.50;100.00
35331;BME280;21441;52.190;20.910;2023-03-13T02:49:20;99514.78;;;1.51;100.00
35331;BME280;21441;52.190;20.910;2023-03-13T02:51:49;99511.63;;;1.57;100.00
35331;BME280;21441;52.190;20.910;2023-03-13T02:54:19;99501.78;;;1.50;100.00
35331;BME280;21441;52.190;20.910;2023-03-13T02:56:50;99503.66;;;1.38;100.00
35331;BME280;21441;52.190;20.910;2023-03-13T02:59:19;99512.75;;;1.34;100.00
35331;BME280;21441;52.190;20.910;2023-03-13T03:01:47;99515.38;;;1.34;100.00
35331;BME280;21441;52.190;20.910;2023-03-13T03:04:18;99503.81;;;1.36;100.00
35331;BME280;21441;52.190;20.910;2023-03-13T03:06:46;99512.63;;;1.35;100.00
35331;BME280;21441;52.190;20.910;2023-03-13T03:09:14;99510.66;;;1.28;100.00
35331;BME280;21441;52.190;20.910;2023-03-13T03:11:42;99525.56;;;1.27;100.00
35331;BME280;21441;52.190;20.910;2023-03-13T03:14:09;99516.88;;;1.27;100.00
35331;BME280;21441;52.190;20.910;2023-03-13T03:16:39;99522.63;;;1.20;100.00
35331;BME280;21441;52.190;20.910;2023-03-13T03:19:07;99515.03;;;1.17;100.00
35331;BME280;21441;52.190;20.910;2023-03-13T03:21:35;99511.19;;;1.21;100.00
35331;BME280;21441;52.190;20.910;2023-03-13T03:24:03;99506.69;;;1.12;100.00
35331;BME280;21441;52.190;20.910;2023-03-13T03:26:31;99508.09;;;1.16;100.00
35331;BME280;21441;52.190;20.910;2023-03-13T03:28:58;99515.59;;;1.21;100.00
35331;BME280;21441;52.190;20.910;2023-03-13T03:31:25;99509.25;;;1.23;100.00
35331;BME280;21441;52.190;20.910;2023-03-13T03:33:54;99512.31;;;1.29;100.00
35331;BME280;21441;52.190;20.910;2023-03-13T03:36:22;99509.28;;;1.33;100.00
35331;BME280;21441;52.190;20.910;2023-03-13T03:38:50;99518.16;;;1.32;100.00
35331;BME280;21441;52.190;20.910;2023-03-13T03:41:18;99519.69;;;1.35;100.00
35331;BME280;21441;52.190;20.910;2023-03-13T03:43:45;99510.28;;;1.32;100.00
35331;BME280;21441;52.190;20.910;2023-03-13T03:46:13;99506.56;;;1.35;100.00
35331;BME280;21441;52.190;20.910;2023-03-13T03:48:40;99509.28;;;1.33;100.00
35331;BME280;21441;52.190;20.910;2023-03-13T03:51:09;99508.03;;;1.28;100.00
35331;BME280;21441;52.190;20.910;2023-03-13T03:53:36;99498.41;;;1.38;100.00
35331;BME280;21441;52.190;20.910;2023-03-13T03:56:05;99491.50;;;1.37;100.00
35331;BME280;21441;52.190;20.910;2023-03-13T03:58:32;99491.72;;;1.34;100.00
35331;BME280;21441;52.190;20.910;2023-03-13T04:00:59;99501.41;;;1.33;100.00
35331;BME280;21441;52.190;20.910;2023-03-13T04:03:26;99500.97;;;1.28;100.00
35331;BME280;21441;52.190;20.910;2023-03-13T04:05:54;99484.00;;;1.32;100.00
35331;BME280;21441;52.190;20.910;2023-03-13T04:08:22;99490.50;;;1.38;100.00
35331;BME280;21441;52.190;20.910;2023-03-13T04:10:50;99490.97;;;1.43;100.00
35331;BME280;21441;52.190;20.910;2023-03-13T04:13:17;99480.28;;;1.35;100.00
35331;BME280;21441;52.190;20.910;2023-03-13T04:15:44;99471.00;;;1.40;100.00
35331;BME280;21441;52.190;20.910;2023-03-13T04:18:13;99476.41;;;1.39;100.00
35331;BME280;21441;52.190;20.910;2023-03-13T04:20:41;99473.91;;;1.37;100.00
35331;BME280;21441;52.190;20.910;2023-03-13T04:23:08;99467.75;;;1.27;100.00
35331;BME280;21441;52.190;20.910;2023-03-13T04:25:37;99469.75;;;1.35;100.00
35331;BME280;21441;52.190;20.910;2023-03-13T04:28:04;99454.94;;;1.34;100.00
35331;BME280;21441;52.190;20.910;2023-03-13T04:30:32;99453.56;;;1.30;100.00
35331;BME280;21441;52.190;20.910;2023-03-13T04:32:59;99459.06;;;1.27;100.00
35331;BME280;21441;52.190;20.910;2023-03-13T04:35:26;99453.38;;;1.21;100.00
35331;BME280;21441;52.190;20.910;2023-03-13T04:37:53;99450.53;;;1.34;100.00
35331;BME280;21441;52.190;20.910;2023-03-13T04:40:21;99446.50;;;1.30;100.00
35331;BME280;21441;52.190;20.910;2023-03-13T04:42:49;99439.25;;;1.22;100.00
35331;BME280;21441;52.190;20.910;2023-03-13T04:45:17;99443.81;;;1.20;100.00
35331;BME280;21441;52.190;20.910;2023-03-13T04:47:45;99446.81;;;1.16;100.00
35331;BME280;21441;52.190;20.910;2023-03-13T04:50:12;99434.78;;;1.13;100.00
35331;BME280;21441;52.190;20.910;2023-03-13T04:52:39;99429.97;;;1.18;100.00
35331;BME280;21441;52.190;20.910;2023-03-13T04:55:08;99429.03;;;1.19;100.00
35331;BME280;21441;52.190;20.910;2023-03-13T04:57:35;99432.78;;;1.27;100.00
35331;BME280;21441;52.190;20.910;2023-03-13T05:00:05;99430.81;;;1.19;100.00
35331;BME280;21441;52.190;20.910;2023-03-13T05:02:33;99435.38;;;1.17;100.00
35331;BME280;21441;52.190;20.910;2023-03-13T05:05:01;99419.09;;;1.23;100.00
35331;BME280;21441;52.190;20.910;2023-03-13T05:07:28;99426.00;;;1.24;100.00
35331;BME280;21441;52.190;20.910;2023-03-13T05:09:55;99417.41;;;1.22;100.00
35331;BME280;21441;52.190;20.910;2023-03-13T05:12:22;99418.28;;;1.32;100.00
35331;BME280;21441;52.190;20.910;2023-03-13T05:14:50;99410.66;;;1.29;100.00
35331;BME280;21441;52.190;20.910;2023-03-13T05:17:18;99415.28;;;1.37;100.00
35331;BME280;21441;52.190;20.910;2023-03-13T05:19:46;99415.00;;;1.40;100.00
35331;BME280;21441;52.190;20.910;2023-03-13T05:22:13;99422.88;;;1.40;100.00
35331;BME280;21441;52.190;20.910;2023-03-13T05:24:40;99423.56;;;1.42;100.00
35331;BME280;21441;52.190;20.910;2023-03-13T05:27:07;99420.66;;;1.35;100.00
35331;BME280;21441;52.190;20.910;2023-03-13T05:29:35;99424.97;;;1.36;100.00
35331;BME280;21441;52.190;20.910;2023-03-13T05:32:02;99423.34;;;1.45;100.00
35331;BME280;21441;52.190;20.910;2023-03-13T05:34:31;99437.41;;;1.44;100.00
35331;BME280;21441;52.190;20.910;2023-03-13T05:36:58;99423.19;;;1.47;100.00
35331;BME280;21441;52.190;20.910;2023-03-13T05:39:26;99411.72;;;1.48;100.00
35331;BME280;21441;52.190;20.910;2023-03-13T05:41:53;99418.91;;;1.55;100.00
35331;BME280;21441;52.190;20.910;2023-03-13T05:44:20;99415.28;;;1.47;100.00
35331;BME280;21441;52.190;20.910;2023-03-13T05:46:47;99415.44;;;1.45;100.00
35331;BME280;21441;52.190;20.910;2023-03-13T05:49:15;99422.13;;;1.59;100.00
35331;BME280;21441;52.190;20.910;2023-03-13T05:51:43;99414.66;;;1.64;100.00
35331;BME280;21441;52.190;20.910;2023-03-13T05:54:10;99413.97;;;1.62;100.00
35331;BME280;21441;52.190;20.910;2023-03-13T05:56:37;99427.16;;;1.72;100.00
35331;BME280;21441;52.190;20.910;2023-03-13T05:59:05;99428.25;;;1.69;100.00
35331;BME280;21441;52.190;20.910;2023-03-13T06:01:32;99422.53;;;1.64;100.00
35331;BME280;21441;52.190;20.910;2023-03-13T06:04:00;99424.94;;;1.77;100.00
35331;BME280;21441;52.190;20.910;2023-03-13T06:06:27;99419.81;;;1.75;100.00
35331;BME280;21441;52.190;20.910;2023-03-13T06:08:56;99414.41;;;1.77;100.00
35331;BME280;21441;52.190;20.910;2023-03-13T06:11:23;99414.53;;;1.75;100.00
35331;BME280;21441;52.190;20.910;2023-03-13T06:13:50;99423.41;;;1.74;100.00
35331;BME280;21441;52.190;20.910;2023-03-13T06:16:17;99414.81;;;1.72;100.00
35331;BME280;21441;52.190;20.910;2023-03-13T06:18:45;99409.56;;;1.72;100.00
35331;BME280;21441;52.190;20.910;2023-03-13T06:21:12;99405.31;;;1.81;100.00
35331;BME280;21441;52.190;20.910;2023-03-13T06:23:40;99404.31;;;1.82;100.00
35331;BME280;21441;52.190;20.910;2023-03-13T06:26:09;99403.78;;;1.78;100.00
35331;BME280;21441;52.190;20.910;2023-03-13T06:28:36;99399.63;;;1.85;100.00
35331;BME280;21441;52.190;20.910;2023-03-13T06:31:05;99405.59;;;1.88;100.00
35331;BME280;21441;52.190;20.910;2023-03-13T06:33:33;99400.47;;;1.96;100.00
35331;BME280;21441;52.190;20.910;2023-03-13T06:36:01;99392.31;;;1.99;100.00
35331;BME280;21441;52.190;20.910;2023-03-13T06:38:29;99396.47;;;2.01;100.00
35331;BME280;21441;52.190;20.910;2023-03-13T06:40:56;99397.97;;;2.04;100.00
35331;BME280;21441;52.190;20.910;2023-03-13T06:43:25;99400.34;;;2.07;100.00
35331;BME280;21441;52.190;20.910;2023-03-13T06:45:52;99402.44;;;2.13;100.00
35331;BME280;21441;52.190;20.910;2023-03-13T06:48:20;99391.91;;;2.13;100.00
35331;BME280;21441;52.190;20.910;2023-03-13T06:50:48;99395.94;;;2.27;100.00
35331;BME280;21441;52.190;20.910;2023-03-13T06:53:17;99394.69;;;2.31;100.00
35331;BME280;21441;52.190;20.910;2023-03-13T06:55:45;99390.25;;;2.32;100.00
35331;BME280;21441;52.190;20.910;2023-03-13T06:58:14;99393.56;;;2.34;100.00
35331;BME280;21441;52.190;20.910;2023-03-13T07:00:42;99385.38;;;2.37;100.00
35331;BME280;21441;52.190;20.910;2023-03-13T07:03:11;99384.72;;;2.44;100.00
35331;BME280;21441;52.190;20.910;2023-03-13T07:05:39;99390.38;;;2.50;100.00
35331;BME280;21441;52.190;20.910;2023-03-13T07:08:06;99389.41;;;2.60;100.00
35331;BME280;21441;52.190;20.910;2023-03-13T07:10:33;99378.72;;;2.62;100.00
35331;BME280;21441;52.190;20.910;2023-03-13T07:13:00;99385.22;;;2.67;100.00
35331;BME280;21441;52.190;20.910;2023-03-13T07:15:27;99374.94;;;2.74;100.00
35331;BME280;21441;52.190;20.910;2023-03-13T07:17:57;99378.69;;;2.81;100.00
35331;BME280;21441;52.190;20.910;2023-03-13T07:20:24;99377.69;;;2.92;100.00
35331;BME280;21441;52.190;20.910;2023-03-13T07:22:52;99372.28;;;2.94;100.00
35331;BME280;21441;52.190;20.910;2023-03-13T07:25:19;99375.16;;;3.00;100.00
35331;BME280;21441;52.190;20.910;2023-03-13T07:27:49;99381.81;;;3.04;100.00
35331;BME280;21441;52.190;20.910;2023-03-13T07:30:17;99371.00;;;3.07;100.00
35331;BME280;21441;52.190;20.910;2023-03-13T07:32:45;99375.41;;;3.17;100.00
35331;BME280;21441;52.190;20.910;2023-03-13T07:35:14;99362.84;;;3.28;100.00
35331;BME280;21441;52.190;20.910;2023-03-13T07:37:41;99368.09;;;3.38;100.00
35331;BME280;21441;52.190;20.910;2023-03-13T07:40:09;99366.91;;;3.50;100.00
35331;BME280;21441;52.190;20.910;2023-03-13T07:42:39;99361.84;;;3.67;100.00
35331;BME280;21441;52.190;20.910;2023-03-13T07:45:07;99367.16;;;3.75;100.00
35331;BME280;21441;52.190;20.910;2023-03-13T07:47:34;99360.63;;;3.79;100.00
35331;BME280;21441;52.190;20.910;2023-03-13T07:50:02;99361.69;;;3.86;100.00
35331;BME280;21441;52.190;20.910;2023-03-13T07:52:31;99363.28;;;3.97;100.00
35331;BME280;21441;52.190;20.910;2023-03-13T07:54:58;99356.13;;;4.07;100.00
35331;BME280;21441;52.190;20.910;2023-03-13T07:57:25;99354.31;;;4.08;100.00
35331;BME280;21441;52.190;20.910;2023-03-13T07:59:52;99353.25;;;4.19;100.00
35331;BME280;21441;52.190;20.910;2023-03-13T08:02:20;99344.41;;;4.28;100.00
35331;BME280;21441;52.190;20.910;2023-03-13T08:04:50;99346.88;;;4.47;100.00
35331;BME280;21441;52.190;20.910;2023-03-13T08:07:18;99340.16;;;4.53;100.00
35331;BME280;21441;52.190;20.910;2023-03-13T08:09:47;99339.38;;;4.61;100.00
35331;BME280;21441;52.190;20.910;2023-03-13T08:12:14;99339.97;;;4.72;100.00
35331;BME280;21441;52.190;20.910;2023-03-13T08:14:42;99335.84;;;4.70;100.00
35331;BME280;21441;52.190;20.910;2023-03-13T08:17:09;99352.41;;;4.80;100.00
35331;BME280;21441;52.190;20.910;2023-03-13T08:19:36;99337.88;;;4.84;100.00
35331;BME280;21441;52.190;20.910;2023-03-13T08:22:04;99344.88;;;4.93;100.00
35331;BME280;21441;52.190;20.910;2023-03-13T08:24:31;99341.06;;;4.88;100.00
35331;BME280;21441;52.190;20.910;2023-03-13T08:27:00;99349.97;;;4.87;100.00
35331;BME280;21441;52.190;20.910;2023-03-13T08:29:27;99333.34;;;4.94;100.00
35331;BME280;21441;52.190;20.910;2023-03-13T08:31:54;99337.00;;;5.02;100.00
35331;BME280;21441;52.190;20.910;2023-03-13T08:34:22;99333.78;;;5.16;100.00
35331;BME280;21441;52.190;20.910;2023-03-13T08:36:49;99327.72;;;5.32;100.00
35331;BME280;21441;52.190;20.910;2023-03-13T08:39:19;99314.53;;;5.40;100.00
35331;BME280;21441;52.190;20.910;2023-03-13T08:41:47;99317.84;;;5.50;100.00
35331;BME280;21441;52.190;20.910;2023-03-13T08:44:16;99324.50;;;5.63;100.00
35331;BME280;21441;52.190;20.910;2023-03-13T08:46:45;99312.31;;;5.78;100.00
35331;BME280;21441;52.190;20.910;2023-03-13T08:49:13;99298.25;;;5.94;100.00
35331;BME280;21441;52.190;20.910;2023-03-13T08:51:42;99298.13;;;6.20;100.00
35331;BME280;21441;52.190;20.910;2023-03-13T08:54:09;99288.53;;;6.44;100.00
35331;BME280;21441;52.190;20.910;2023-03-13T08:56:37;99285.97;;;6.75;100.00
35331;BME280;21441;52.190;20.910;2023-03-13T08:59:05;99287.91;;;6.89;100.00
35331;BME280;21441;52.190;20.910;2023-03-13T09:01:35;99287.88;;;7.06;100.00
35331;BME280;21441;52.190;20.910;2023-03-13T09:04:03;99275.53;;;7.21;100.00
35331;BME280;21441;52.190;20.910;2023-03-13T09:06:31;99282.94;;;7.34;100.00
35331;BME280;21441;52.190;20.910;2023-03-13T09:08:59;99281.13;;;7.34;100.00
35331;BME280;21441;52.190;20.910;2023-03-13T09:11:26;99285.94;;;7.62;100.00
35331;BME280;21441;52.190;20.910;2023-03-13T09:13:54;99272.03;;;7.60;100.00
35331;BME280;21441;52.190;20.910;2023-03-13T09:16:26;99257.88;;;7.91;100.00
35331;BME280;21441;52.190;20.910;2023-03-13T09:18:55;99258.22;;;8.11;100.00
35331;BME280;21441;52.190;20.910;2023-03-13T09:21:25;99261.44;;;8.21;100.00
35331;BME280;21441;52.190;20.910;2023-03-13T09:23:52;99248.50;;;8.41;100.00
35331;BME280;21441;52.190;20.910;2023-03-13T09:26:21;99249.53;;;8.32;100.00
35331;BME280;21441;52.190;20.910;2023-03-13T09:28:48;99254.94;;;8.61;100.00
35331;BME280;21441;52.190;20.910;2023-03-13T09:31:18;99235.94;;;8.50;100.00
35331;BME280;21441;52.190;20.910;2023-03-13T09:33:46;99248.25;;;8.51;100.00
35331;BME280;21441;52.190;20.910;2023-03-13T09:36:16;99241.19;;;8.58;100.00
35331;BME280;21441;52.190;20.910;2023-03-13T09:38:43;99232.47;;;8.64;100.00
35331;BME280;21441;52.190;20.910;2023-03-13T09:41:24;99215.78;;;8.70;100.00
35331;BME280;21441;52.190;20.910;2023-03-13T09:43:57;99219.09;;;8.87;100.00
35331;BME280;21441;52.190;20.910;2023-03-13T09:46:32;99220.72;;;9.03;100.00
35331;BME280;21441;52.190;20.910;2023-03-13T09:49:04;99215.75;;;9.00;100.00
35331;BME280;21441;52.190;20.910;2023-03-13T09:51:37;99210.97;;;9.10;100.00
35331;BME280;21441;52.190;20.910;2023-03-13T09:54:14;99208.06;;;9.26;100.00
35331;BME280;21441;52.190;20.910;2023-03-13T09:56:49;99210.56;;;9.28;100.00
35331;BME280;21441;52.190;20.910;2023-03-13T09:59:19;99210.06;;;9.39;100.00
35331;BME280;21441;52.190;20.910;2023-03-13T10:01:49;99211.97;;;9.45;100.00
35331;BME280;21441;52.190;20.910;2023-03-13T10:04:28;99176.41;;;9.32;100.00
35331;BME280;21441;52.190;20.910;2023-03-13T10:07:01;99176.38;;;9.46;100.00
35331;BME280;21441;52.190;20.910;2023-03-13T10:09:29;99188.03;;;9.45;100.00
35331;BME280;21441;52.190;20.910;2023-03-13T10:12:05;99187.50;;;9.35;100.00
35331;BME280;21441;52.190;20.910;2023-03-13T10:14:41;99188.69;;;9.33;100.00
35331;BME280;21441;52.190;20.910;2023-03-13T10:17:16;99182.06;;;9.43;100.00
35331;BME280;21441;52.190;20.910;2023-03-13T10:19:47;99187.00;;;9.25;100.00
35331;BME280;21441;52.190;20.910;2023-03-13T10:22:24;99183.69;;;9.23;100.00
35331;BME280;21441;52.190;20.910;2023-03-13T10:24:56;99199.09;;;9.27;100.00
35331;BME280;21441;52.190;20.910;2023-03-13T10:27:24;99192.88;;;9.42;100.00
35331;BME280;21441;52.190;20.910;2023-03-13T10:29:52;99192.31;;;9.25;100.00
35331;BME280;21441;52.190;20.910;2023-03-13T10:32:19;99187.63;;;9.27;100.00
35331;BME280;21441;52.190;20.910;2023-03-13T10:34:52;99169.25;;;9.32;100.00
35331;BME280;21441;52.190;20.910;2023-03-13T10:37:25;99197.53;;;9.33;100.00
35331;BME280;21441;52.190;20.910;2023-03-13T10:39:53;99169.94;;;9.19;100.00
35331;BME280;21441;52.190;20.910;2023-03-13T10:42:26;99163.75;;;9.34;100.00
35331;BME280;21441;52.190;20.910;2023-03-13T10:44:58;99170.22;;;9.24;100.00
35331;BME280;21441;52.190;20.910;2023-03-13T10:47:26;99159.94;;;9.21;100.00
35331;BME280;21441;52.190;20.910;2023-03-13T10:49:58;99151.38;;;9.26;100.00
35331;BME280;21441;52.190;20.910;2023-03-13T10:52:33;99142.13;;;9.22;100.00
35331;BME280;21441;52.190;20.910;2023-03-13T10:55:03;99142.19;;;9.28;100.00
35331;BME280;21441;52.190;20.910;2023-03-13T10:57:32;99127.50;;;9.33;100.00
35331;BME280;21441;52.190;20.910;2023-03-13T11:00:03;99130.34;;;9.53;100.00
35331;BME280;21441;52.190;20.910;2023-03-13T11:02:37;99127.53;;;9.61;100.00
35331;BME280;21441;52.190;20.910;2023-03-13T11:05:29;99131.13;;;9.75;100.00
35331;BME280;21441;52.190;20.910;2023-03-13T11:08:10;99129.09;;;9.77;100.00
35331;BME280;21441;52.190;20.910;2023-03-13T11:10:37;99117.09;;;9.87;100.00
35331;BME280;21441;52.190;20.910;2023-03-13T11:13:27;99125.03;;;10.09;100.00
35331;BME280;21441;52.190;20.910;2023-03-13T11:15:57;99125.66;;;10.11;100.00
35331;BME280;21441;52.190;20.910;2023-03-13T11:18:31;99103.63;;;10.24;100.00
35331;BME280;21441;52.190;20.910;2023-03-13T11:21:00;99113.78;;;10.42;100.00
35331;BME280;21441;52.190;20.910;2023-03-13T11:23:34;99081.69;;;10.63;100.00
35331;BME280;21441;52.190;20.910;2023-03-13T11:26:10;99071.94;;;11.04;99.90
35331;BME280;21441;52.190;20.910;2023-03-13T11:28:49;99064.56;;;11.39;92.95
35331;BME280;21441;52.190;20.910;2023-03-13T11:31:23;99046.91;;;11.71;89.12
35331;BME280;21441;52.190;20.910;2023-03-13T11:33:57;99044.22;;;11.85;86.30
35331;BME280;21441;52.190;20.910;2023-03-13T11:36:32;99034.72;;;12.09;81.81
35331;BME280;21441;52.190;20.910;2023-03-13T11:39:32;99038.03;;;11.84;80.40
35331;BME280;21441;52.190;20.910;2023-03-13T11:42:12;99028.63;;;11.68;81.21
35331;BME280;21441;52.190;20.910;2023-03-13T11:44:49;99031.06;;;11.76;81.28
35331;BME280;21441;52.190;20.910;2023-03-13T11:47:31;99011.94;;;11.93;79.59
35331;BME280;21441;52.190;20.910;2023-03-13T11:50:17;99029.03;;;11.52;82.57
35331;BME280;21441;52.190;20.910;2023-03-13T11:52:57;99025.75;;;11.50;83.72
35331;BME280;21441;52.190;20.910;2023-03-13T11:55:41;99014.88;;;11.51;83.75
35331;BME280;21441;52.190;20.910;2023-03-13T11:58:25;99018.16;;;11.47;83.56
35331;BME280;21441;52.190;20.910;2023-03-13T12:00:58;99035.81;;;11.34;84.94
35331;BME280;21441;52.190;20.910;2023-03-13T12:03:35;99017.94;;;11.22;84.83
35331;BME280;21441;52.190;20.910;2023-03-13T12:06:09;98998.44;;;11.34;85.49
35331;BME280;21441;52.190;20.910;2023-03-13T12:08:42;99000.50;;;11.32;83.61
35331;BME280;21441;52.190;20.910;2023-03-13T12:11:17;98999.06;;;11.23;83.82
35331;BME280;21441;52.190;20.910;2023-03-13T12:13:50;99022.88;;;11.05;84.00
35331;BME280;21441;52.190;20.910;2023-03-13T12:16:20;98995.78;;;11.08;86.19
35331;BME280;21441;52.190;20.910;2023-03-13T12:18:51;99003.16;;;11.06;87.48
35331;BME280;21441;52.190;20.910;2023-03-13T12:21:22;98995.16;;;11.06;87.69
35331;BME280;21441;52.190;20.910;2023-03-13T12:24:00;98987.56;;;11.09;88.92
35331;BME280;21441;52.190;20.910;2023-03-13T12:26:37;98984.91;;;11.03;88.32
35331;BME280;21441;52.190;20.910;2023-03-13T12:29:12;98982.84;;;10.91;90.30
35331;BME280;21441;52.190;20.910;2023-03-13T12:31:47;99023.88;;;10.84;90.87
35331;BME280;21441;52.190;20.910;2023-03-13T12:34:20;98984.66;;;10.84;94.35
35331;BME280;21441;52.190;20.910;2023-03-13T12:36:52;98973.19;;;10.84;97.18
35331;BME280;21441;52.190;20.910;2023-03-13T12:39:27;98971.94;;;10.73;99.03
35331;BME280;21441;52.190;20.910;2023-03-13T12:42:31;98978.13;;;10.87;100.00
35331;BME280;21441;52.190;20.910;2023-03-13T12:45:01;98971.94;;;10.73;100.00
35331;BME280;21441;52.190;20.910;2023-03-13T12:47:31;98962.91;;;10.67;100.00
35331;BME280;21441;52.190;20.910;2023-03-13T12:50:18;98953.25;;;10.66;100.00
35331;BME280;21441;52.190;20.910;2023-03-13T12:53:26;98950.34;;;10.48;100.00
35331;BME280;21441;52.190;20.910;2023-03-13T12:56:22;98961.00;;;10.41;100.00
35331;BME280;21441;52.190;20.910;2023-03-13T12:58:56;98955.59;;;10.28;100.00
35331;BME280;21441;52.190;20.910;2023-03-13T13:01:31;98953.75;;;10.28;100.00
35331;BME280;21441;52.190;20.910;2023-03-13T13:04:03;98951.28;;;10.27;100.00